createdAt,value
2022-10-18T00:00:06.117Z,34.40
2022-10-18T00:02:32.801Z,33.30
2022-10-18T00:04:59.513Z,33.10
2022-10-18T00:07:26.206Z,34.05
2022-10-18T00:09:52.796Z,36.53
2022-10-18T00:12:19.433Z,34.08
2022-10-18T00:14:50.177Z,33.70
2022-10-18T00:17:17.032Z,31.58
2022-10-18T00:19:43.982Z,34.22
2022-10-18T00:22:10.643Z,34.88
2022-10-18T00:24:37.278Z,34.28
2022-10-18T00:27:04.136Z,33.13
2022-10-18T00:29:30.730Z,38.25
2022-10-18T00:31:57.381Z,41.22
2022-10-18T00:34:23.967Z,39.45
2022-10-18T00:36:50.757Z,36.92
2022-10-18T00:39:19.654Z,34.50
2022-10-18T00:41:47.244Z,34.47
2022-10-18T00:44:13.851Z,39.03
2022-10-18T00:46:43.626Z,40.30
2022-10-18T00:49:23.393Z,29.92
2022-10-18T00:51:55.258Z,35.85
2022-10-18T00:54:23.172Z,43.15
2022-10-18T00:56:50.015Z,41.90
2022-10-18T00:59:18.413Z,45.67
2022-10-18T01:01:46.110Z,40.03
2022-10-18T01:04:15.208Z,39.53
2022-10-18T01:09:51.364Z,33.55
2022-10-18T01:12:51.996Z,27.73
2022-10-18T01:15:25.956Z,25.40
2022-10-18T01:18:05.006Z,24.58
2022-10-18T01:20:43.788Z,27.02
2022-10-18T01:23:31.167Z,30.95
2022-10-18T01:26:26.795Z,38.15
2022-10-18T01:28:59.398Z,32.00
2022-10-18T01:31:33.102Z,24.73
2022-10-18T01:34:07.125Z,32.50
2022-10-18T01:36:41.299Z,27.48
2022-10-18T01:39:13.642Z,32.47
2022-10-18T01:41:45.658Z,34.13
2022-10-18T01:44:19.400Z,33.88
2022-10-18T01:46:47.142Z,31.10
2022-10-18T01:49:16.182Z,31.90
2022-10-18T01:51:42.799Z,32.15
2022-10-18T01:54:13.103Z,33.60
2022-10-18T01:57:03.657Z,30.80
2022-10-18T01:59:54.583Z,25.52
2022-10-18T02:02:58.752Z,23.55
2022-10-18T02:05:28.018Z,21.05
2022-10-18T02:08:23.403Z,20.95
2022-10-18T02:10:56.246Z,15.35
2022-10-18T02:13:26.606Z,31.33
2022-10-18T02:15:59.495Z,26.38
2022-10-18T02:18:35.486Z,24.55
2022-10-18T02:21:05.668Z,24.90
2022-10-18T02:23:34.112Z,31.10
2022-10-18T02:26:01.325Z,23.58
2022-10-18T02:28:28.115Z,28.75
2022-10-18T02:31:00.378Z,35.72
2022-10-18T02:34:01.371Z,26.88
2022-10-18T02:36:39.187Z,33.50
2022-10-18T02:39:11.736Z,33.85
2022-10-18T02:41:38.625Z,40.97
2022-10-18T02:44:05.248Z,35.55
2022-10-18T02:46:32.031Z,44.75
2022-10-18T02:48:58.669Z,40.13
2022-10-18T02:51:25.547Z,34.05
2022-10-18T02:53:52.284Z,65.65
2022-10-18T02:56:19.155Z,52.67
2022-10-18T02:58:45.811Z,40.25
2022-10-18T03:01:12.517Z,42.05
2022-10-18T03:03:44.825Z,30.35
2022-10-18T03:06:11.491Z,32.08
2022-10-18T03:08:38.323Z,44.42
2022-10-18T03:11:22.723Z,27.73
2022-10-18T03:13:56.367Z,34.90
2022-10-18T03:16:43.404Z,40.70
2022-10-18T03:19:20.990Z,44.47
2022-10-18T03:21:47.869Z,82.78
2022-10-18T03:24:17.765Z,34.90
2022-10-18T03:26:44.417Z,35.90
2022-10-18T03:29:11.603Z,30.70
2022-10-18T03:31:41.781Z,37.10
2022-10-18T03:34:08.498Z,36.83
2022-10-18T03:36:35.184Z,37.78
2022-10-18T03:39:01.799Z,39.75
2022-10-18T03:41:28.447Z,26.50
2022-10-18T03:43:55.115Z,28.17
2022-10-18T03:46:21.675Z,40.08
2022-10-18T03:48:48.378Z,42.47
2022-10-18T03:51:24.074Z,32.30
2022-10-18T03:53:50.680Z,37.75
2022-10-18T03:56:17.349Z,30.55
2022-10-18T03:58:57.333Z,30.20
2022-10-18T04:01:36.661Z,32.97
2022-10-18T04:04:03.332Z,27.65
2022-10-18T04:06:29.941Z,38.25
2022-10-18T04:08:56.587Z,67.68
2022-10-18T04:11:23.225Z,42.67
2022-10-18T04:13:53.006Z,28.33
2022-10-18T04:16:19.892Z,42.08
2022-10-18T04:18:46.626Z,28.48
2022-10-18T04:21:13.327Z,36.47
2022-10-18T04:23:40.062Z,39.50
2022-10-18T04:26:07.750Z,32.22
2022-10-18T04:28:35.498Z,38.40
2022-10-18T04:31:02.237Z,50.25
2022-10-18T04:33:28.937Z,39.58
2022-10-18T04:35:55.475Z,58.05
2022-10-18T04:38:22.162Z,57.70
2022-10-18T04:40:48.811Z,31.55
2022-10-18T04:43:15.429Z,42.63
2022-10-18T04:45:44.919Z,46.03
2022-10-18T04:48:11.673Z,54.28
2022-10-18T04:50:38.396Z,48.47
2022-10-18T04:53:05.013Z,43.40
2022-10-18T04:55:31.789Z,90.72
2022-10-18T04:57:58.502Z,53.03
2022-10-18T05:00:25.126Z,59.40
2022-10-18T05:02:57.735Z,42.92
2022-10-18T05:05:27.026Z,31.83
2022-10-18T05:07:59.818Z,42.17
2022-10-18T05:10:26.478Z,56.42
2022-10-18T05:12:53.118Z,48.33
2022-10-18T05:15:19.705Z,45.80
2022-10-18T05:17:49.132Z,40.85
2022-10-18T05:20:16.212Z,45.45
2022-10-18T05:22:42.849Z,30.05
2022-10-18T05:25:09.685Z,46.17
2022-10-18T05:27:36.314Z,41.95
2022-10-18T05:30:05.688Z,34.45
2022-10-18T05:32:32.888Z,37.88
2022-10-18T05:34:59.846Z,36.13
2022-10-18T05:37:28.387Z,23.77
2022-10-18T05:39:55.288Z,50.88
2022-10-18T05:42:22.059Z,20.75
2022-10-18T05:44:48.683Z,29.60
2022-10-18T05:47:18.560Z,30.75
2022-10-18T05:49:45.185Z,33.00
2022-10-18T05:52:14.544Z,39.95
2022-10-18T05:54:41.145Z,23.98
2022-10-18T05:57:08.082Z,24.95
2022-10-18T05:59:34.659Z,28.80
2022-10-18T06:02:01.273Z,24.05
2022-10-18T06:04:28.107Z,25.48
2022-10-18T06:06:56.184Z,48.00
2022-10-18T06:09:22.962Z,39.15
2022-10-18T06:11:49.681Z,29.05
2022-10-18T06:14:16.301Z,23.10
2022-10-18T06:16:43.260Z,28.00
2022-10-18T06:19:10.848Z,29.85
2022-10-18T06:21:38.804Z,33.15
2022-10-18T06:24:05.970Z,29.48
2022-10-18T06:26:32.735Z,27.90
2022-10-18T06:28:59.453Z,28.35
2022-10-18T06:31:29.854Z,26.58
2022-10-18T06:34:08.527Z,31.13
2022-10-18T06:36:35.275Z,41.53
2022-10-18T06:39:02.599Z,31.83
2022-10-18T06:41:29.245Z,37.83
2022-10-18T06:43:57.650Z,31.38
2022-10-18T06:46:24.856Z,24.92
2022-10-18T06:48:51.506Z,33.42
2022-10-18T06:51:18.583Z,31.77
2022-10-18T06:53:59.250Z,26.02
2022-10-18T06:56:31.811Z,30.55
2022-10-18T07:01:30.165Z,41.63
2022-10-18T07:03:57.013Z,39.65
2022-10-18T07:06:24.299Z,41.05
2022-10-18T07:08:54.160Z,92.13
2022-10-18T07:11:26.625Z,38.88
2022-10-18T07:13:54.874Z,33.35
2022-10-18T07:16:21.858Z,36.15
2022-10-18T07:18:50.898Z,33.60
2022-10-18T07:21:20.816Z,30.25
2022-10-18T07:23:47.854Z,40.42
2022-10-18T07:26:18.868Z,32.45
2022-10-18T07:28:48.438Z,30.90
2022-10-18T07:31:15.358Z,30.73
2022-10-18T07:33:43.239Z,40.45
2022-10-18T07:36:14.929Z,36.75
2022-10-18T07:38:41.937Z,33.88
2022-10-18T07:41:10.538Z,28.38
2022-10-18T07:43:37.307Z,32.83
2022-10-18T07:46:07.967Z,30.63
2022-10-18T07:48:34.695Z,29.60
2022-10-18T07:51:02.001Z,32.30
2022-10-18T07:53:29.630Z,44.35
2022-10-18T07:56:03.389Z,44.10
2022-10-18T07:58:33.342Z,39.05
2022-10-18T08:01:04.864Z,41.40
2022-10-18T08:03:31.706Z,48.22
2022-10-18T08:05:58.898Z,43.63
2022-10-18T08:08:26.122Z,57.63
2022-10-18T08:10:53.056Z,57.50
2022-10-18T08:13:20.197Z,56.83
2022-10-18T08:15:47.561Z,55.17
2022-10-18T08:18:14.446Z,60.00
2022-10-18T08:20:45.243Z,78.50
2022-10-18T08:23:12.811Z,88.15
2022-10-18T08:25:39.686Z,88.60
2022-10-18T08:28:07.210Z,92.50
2022-10-18T08:30:36.893Z,112.40
2022-10-18T08:33:04.205Z,96.90
2022-10-18T08:35:31.959Z,73.57
2022-10-18T08:37:59.420Z,53.63
2022-10-18T08:40:29.042Z,66.75
2022-10-18T08:43:21.673Z,37.03
2022-10-18T08:45:51.611Z,37.97
2022-10-18T08:48:27.719Z,33.47
2022-10-18T08:50:57.485Z,43.47
2022-10-18T08:54:05.240Z,46.90
2022-10-18T08:56:33.660Z,23.50
2022-10-18T08:59:04.117Z,22.42
2022-10-18T09:01:43.986Z,29.75
2022-10-18T09:04:48.521Z,26.67
2022-10-18T09:07:23.248Z,22.67
2022-10-18T09:10:14.343Z,21.38
2022-10-18T09:12:59.849Z,23.35
2022-10-18T09:15:59.809Z,26.58
2022-10-18T09:19:02.725Z,24.27
2022-10-18T09:22:07.487Z,22.08
2022-10-18T09:24:40.724Z,24.63
2022-10-18T09:27:22.660Z,26.48
2022-10-18T09:30:15.140Z,24.83
2022-10-18T09:33:02.109Z,31.05
2022-10-18T09:35:33.947Z,26.88
2022-10-18T09:38:10.205Z,35.60
2022-10-18T09:40:46.894Z,32.08
2022-10-18T09:43:22.181Z,32.58
2022-10-18T09:45:51.109Z,39.55
2022-10-18T09:48:31.384Z,28.17
2022-10-18T09:51:12.219Z,32.55
2022-10-18T09:53:45.858Z,41.15
2022-10-18T09:56:41.037Z,45.67
2022-10-18T09:59:32.500Z,32.30
2022-10-18T10:01:59.268Z,39.55
2022-10-18T10:04:26.080Z,21.40
2022-10-18T10:06:57.264Z,33.97
2022-10-18T10:09:36.301Z,40.63
2022-10-18T10:12:03.093Z,32.42
2022-10-18T10:14:30.753Z,35.80
2022-10-18T10:17:19.902Z,31.45
2022-10-18T10:20:17.967Z,29.13
2022-10-18T10:22:47.805Z,28.42
2022-10-18T10:25:26.009Z,27.13
2022-10-18T10:27:53.217Z,29.98
2022-10-18T10:30:36.985Z,27.27
2022-10-18T10:33:04.817Z,18.67
2022-10-18T10:35:53.502Z,25.17
2022-10-18T10:38:28.862Z,30.05
2022-10-18T10:40:56.505Z,22.00
2022-10-18T10:43:38.289Z,26.70
2022-10-18T10:46:13.256Z,15.73
2022-10-18T10:48:48.418Z,15.67
2022-10-18T10:51:19.156Z,31.85
2022-10-18T10:54:03.875Z,14.35
2022-10-18T10:56:33.857Z,19.85
2022-10-18T10:59:17.162Z,12.50
2022-10-18T11:01:48.525Z,27.50
2022-10-18T11:04:30.284Z,12.63
2022-10-18T11:07:09.027Z,14.73
2022-10-18T11:09:50.835Z,11.30
2022-10-18T11:14:54.735Z,15.23
2022-10-18T11:17:32.889Z,94.57
2022-10-18T11:20:02.490Z,66.50
2022-10-18T15:45:27.207Z,80.22
2022-10-18T15:48:11.207Z,26.15
2022-10-18T15:50:42.430Z,20.17
2022-10-18T15:53:20.975Z,29.35
2022-10-18T15:55:52.375Z,20.52
2022-10-18T15:58:20.996Z,17.73
2022-10-18T16:00:49.501Z,21.00
2022-10-18T16:03:21.023Z,20.27
2022-10-18T16:05:48.317Z,20.20
2022-10-18T16:08:24.814Z,23.63
2022-10-18T16:10:52.071Z,19.60
2022-10-18T16:13:19.082Z,16.20
2022-10-18T16:15:51.129Z,25.33
2022-10-18T16:18:20.140Z,19.52
2022-10-18T16:21:17.114Z,19.15
2022-10-18T16:23:43.743Z,29.55
2022-10-18T16:26:11.997Z,32.53
2022-10-18T16:28:42.861Z,43.85
2022-10-18T16:43:39.702Z,31.00
2022-10-18T16:46:07.782Z,23.33
2022-10-18T16:48:34.523Z,24.77
2022-10-18T16:51:04.151Z,21.80
2022-10-18T16:53:31.046Z,26.88
2022-10-18T16:55:59.931Z,30.80
2022-10-18T16:58:28.982Z,53.78
2022-10-18T17:00:56.442Z,36.15
2022-10-18T17:03:27.171Z,25.20
2022-10-18T17:05:54.258Z,36.92
2022-10-18T17:08:24.900Z,23.42
2022-10-18T17:10:54.025Z,25.13
2022-10-18T17:13:22.339Z,35.53
2022-10-18T17:15:50.130Z,39.38
2022-10-18T17:18:21.197Z,40.05
2022-10-18T17:20:49.293Z,48.45
2022-10-18T17:23:16.001Z,44.63
2022-10-18T17:25:57.858Z,47.97
2022-10-18T17:28:33.359Z,46.58
2022-10-18T17:31:00.008Z,35.88
2022-10-18T17:33:26.799Z,42.38
2022-10-18T17:35:53.505Z,29.83
2022-10-18T17:38:20.083Z,36.53
2022-10-18T17:40:46.653Z,44.95
2022-10-18T17:43:15.869Z,42.08
2022-10-18T17:45:51.172Z,48.15
2022-10-18T17:48:19.334Z,51.22
2022-10-18T17:50:46.327Z,46.28
2022-10-18T17:53:15.912Z,50.15
2022-10-18T17:55:49.229Z,57.83
2022-10-18T17:58:15.919Z,47.25
2022-10-18T18:00:48.809Z,42.67
2022-10-18T18:03:22.850Z,52.75
2022-10-18T18:05:49.447Z,50.50
2022-10-18T18:08:44.368Z,49.08
2022-10-18T18:13:39.824Z,52.20
2022-10-18T18:16:15.352Z,72.55
2022-10-18T18:18:42.232Z,66.03
2022-10-18T18:21:15.142Z,53.75
2022-10-18T18:23:45.071Z,42.63
2022-10-18T18:26:11.914Z,52.13
2022-10-18T18:28:42.231Z,37.92
2022-10-18T18:32:04.744Z,28.17
2022-10-18T18:34:40.480Z,29.15
2022-10-18T18:37:08.095Z,27.02
2022-10-18T18:39:35.798Z,37.38
2022-10-18T18:42:04.043Z,42.58
2022-10-18T18:44:32.200Z,28.60
2022-10-18T18:46:59.070Z,22.35
2022-10-18T18:49:28.593Z,32.53
2022-10-18T18:52:15.311Z,32.65
2022-10-18T18:54:42.030Z,39.17
2022-10-18T18:57:08.559Z,47.67
2022-10-18T18:59:35.256Z,57.17
2022-10-18T19:02:01.897Z,56.58
2022-10-18T19:04:29.221Z,65.47
2022-10-18T19:06:56.067Z,54.60
2022-10-18T19:09:23.114Z,55.65
2022-10-18T19:11:56.048Z,56.92
2022-10-18T19:14:25.435Z,50.80
2022-10-18T19:16:59.206Z,60.55
2022-10-18T19:19:29.068Z,48.45
2022-10-18T19:21:58.153Z,47.45
2022-10-18T19:24:27.493Z,45.75
2022-10-18T19:26:55.382Z,61.08
2022-10-18T19:29:30.932Z,61.35
2022-10-18T19:32:00.840Z,62.88
2022-10-18T19:34:29.089Z,64.22
2022-10-18T19:36:56.097Z,53.42
2022-10-18T19:39:25.430Z,46.58
2022-10-18T19:41:57.871Z,88.85
2022-10-18T19:44:27.565Z,62.75
2022-10-18T19:46:54.972Z,62.05
2022-10-18T19:49:24.769Z,58.00
2022-10-18T19:51:51.598Z,50.65
2022-10-18T19:54:18.757Z,58.38
2022-10-18T19:56:45.654Z,53.55
2022-10-18T19:59:14.263Z,55.55
2022-10-18T20:01:41.625Z,60.67
2022-10-18T20:04:09.091Z,58.08
2022-10-18T20:06:37.067Z,89.07
2022-10-18T20:09:05.043Z,60.70
2022-10-18T20:11:32.083Z,58.25
2022-10-18T20:13:59.772Z,68.20
2022-10-18T20:16:29.745Z,61.17
2022-10-18T20:19:05.639Z,56.50
2022-10-18T20:21:35.929Z,64.55
2022-10-18T20:24:04.692Z,68.22
2022-10-18T20:26:31.785Z,60.28
2022-10-18T20:29:00.130Z,64.60
2022-10-18T20:31:34.724Z,70.45
2022-10-18T20:34:03.807Z,51.80
2022-10-18T20:36:32.284Z,59.90
2022-10-18T20:38:59.910Z,103.75
2022-10-18T20:41:29.606Z,100.60
2022-10-18T20:44:02.048Z,57.03
2022-10-18T20:46:35.259Z,83.80
2022-10-18T20:49:02.383Z,82.20
2022-10-18T20:51:29.029Z,63.83
2022-10-18T20:53:55.980Z,48.92
2022-10-18T20:56:26.555Z,42.47
2022-10-18T20:58:57.013Z,40.70
2022-10-18T21:01:26.327Z,38.63
2022-10-18T21:03:54.737Z,34.22
2022-10-18T21:06:26.088Z,38.85
2022-10-18T21:08:57.856Z,40.22
2022-10-18T21:11:26.189Z,39.45
2022-10-18T21:13:54.204Z,39.42
2022-10-18T21:16:20.961Z,43.10
2022-10-18T21:18:51.020Z,40.58
2022-10-18T21:21:24.069Z,47.08
2022-10-18T21:23:51.950Z,39.47
2022-10-18T21:26:25.128Z,40.97
2022-10-18T21:28:53.988Z,38.67
2022-10-18T21:31:26.461Z,40.67
2022-10-18T21:33:55.053Z,40.88
2022-10-18T21:36:21.733Z,37.63
2022-10-18T21:38:48.713Z,37.05
2022-10-18T21:41:17.599Z,39.08
2022-10-18T21:43:46.607Z,37.75
2022-10-18T21:46:14.571Z,38.58
2022-10-18T21:48:46.264Z,44.35
2022-10-18T21:51:14.382Z,41.67
2022-10-18T21:53:49.237Z,44.05
2022-10-18T21:56:18.063Z,42.08
2022-10-18T21:58:45.349Z,39.90
2022-10-18T22:01:21.318Z,44.97
2022-10-18T22:03:49.678Z,43.70
2022-10-18T22:06:19.901Z,32.80
2022-10-18T22:08:52.556Z,42.47
2022-10-18T22:11:22.627Z,42.03
2022-10-18T22:13:49.826Z,43.63
2022-10-18T22:16:18.524Z,34.92
2022-10-18T22:18:47.298Z,41.67
2022-10-18T22:21:16.394Z,41.17
2022-10-18T22:23:48.723Z,46.97
2022-10-18T22:26:20.957Z,40.17
2022-10-18T22:28:53.523Z,40.33
2022-10-18T22:31:23.204Z,42.38
2022-10-18T22:33:58.406Z,35.83
2022-10-18T22:36:25.330Z,45.00
2022-10-18T22:38:54.785Z,34.75
2022-10-18T22:41:21.616Z,41.45
2022-10-18T22:43:50.752Z,36.25
2022-10-18T22:46:18.184Z,35.72
2022-10-18T22:48:45.474Z,41.53
2022-10-18T22:51:15.507Z,36.33
2022-10-18T22:53:42.124Z,33.70
2022-10-18T22:56:11.709Z,31.75
2022-10-18T22:58:38.441Z,37.70
2022-10-18T23:01:07.567Z,43.45
2022-10-18T23:03:34.548Z,36.90
2022-10-18T23:06:01.239Z,35.92
2022-10-18T23:08:28.330Z,37.78
2022-10-18T23:10:59.279Z,36.83
2022-10-18T23:13:30.638Z,34.15
2022-10-18T23:16:04.699Z,37.83
2022-10-18T23:18:33.083Z,37.65
2022-10-18T23:21:05.103Z,37.97
2022-10-18T23:23:37.224Z,37.58
2022-10-18T23:26:13.039Z,43.83
2022-10-18T23:28:42.980Z,30.75
2022-10-18T23:31:12.466Z,37.10
2022-10-18T23:33:39.976Z,39.72
2022-10-18T23:36:08.147Z,36.78
2022-10-18T23:38:36.479Z,31.25
2022-10-18T23:41:03.983Z,31.95
2022-10-18T23:43:30.775Z,29.13
2022-10-18T23:45:57.511Z,33.30
2022-10-18T23:48:24.357Z,32.15
2022-10-18T23:50:51.257Z,33.70
2022-10-18T23:53:19.784Z,34.25
2022-10-18T23:56:00.829Z,31.10
2022-10-18T23:58:30.588Z,33.80
